createdAt,value
2022-10-07T00:00:44.992Z,98323.38
2022-10-07T00:02:47.841Z,98326.00
2022-10-07T00:04:50.588Z,98326.06
2022-10-07T00:06:54.678Z,98326.94
2022-10-07T00:08:57.412Z,98329.56
2022-10-07T00:11:05.715Z,98323.47
2022-10-07T00:13:10.576Z,98323.47
2022-10-07T00:15:13.334Z,98319.13
2022-10-07T00:17:16.128Z,98322.69
2022-10-07T00:19:19.836Z,98316.56
2022-10-07T00:21:22.581Z,98323.59
2022-10-07T00:23:26.674Z,98318.38
2022-10-07T00:25:29.445Z,98324.53
2022-10-07T00:27:32.272Z,98319.34
2022-10-07T00:29:35.023Z,98315.94
2022-10-07T00:31:38.868Z,98314.13
2022-10-07T00:33:42.264Z,98317.69
2022-10-07T00:35:45.086Z,98317.75
2022-10-07T00:37:47.839Z,98311.63
2022-10-07T00:39:51.806Z,98310.78
2022-10-07T00:41:56.503Z,98300.28
2022-10-07T00:44:00.001Z,98303.69
2022-10-07T00:46:08.249Z,98296.69
2022-10-07T00:48:10.968Z,98289.75
2022-10-07T00:50:19.073Z,98293.25
2022-10-07T00:52:25.407Z,98294.19
2022-10-07T00:54:28.134Z,98295.16
2022-10-07T00:56:32.787Z,98299.56
2022-10-07T00:58:38.031Z,98285.56
2022-10-07T01:00:40.973Z,98278.56
2022-10-07T01:02:44.391Z,98286.44
2022-10-07T01:04:49.053Z,98282.94
2022-10-07T01:06:51.689Z,98275.13
2022-10-07T01:08:55.526Z,98276.91
2022-10-07T01:11:13.888Z,98269.88
2022-10-07T01:13:26.626Z,98268.97
2022-10-07T01:15:36.497Z,98271.66
2022-10-07T01:17:47.528Z,98268.16
2022-10-07T01:20:08.321Z,98268.22
2022-10-07T01:22:26.296Z,98260.34
2022-10-07T01:24:41.289Z,98264.72
2022-10-07T01:26:54.102Z,98264.78
2022-10-07T01:29:01.960Z,98256.91
2022-10-07T01:31:07.419Z,98251.66
2022-10-07T01:33:15.941Z,98258.66
2022-10-07T01:35:22.399Z,98252.59
2022-10-07T01:37:27.035Z,98251.78
2022-10-07T01:39:34.555Z,98240.50
2022-10-07T01:41:38.646Z,98243.13
2022-10-07T01:43:43.258Z,98240.56
2022-10-07T01:45:46.183Z,98233.69
2022-10-07T01:47:49.167Z,98235.44
2022-10-07T01:49:51.771Z,98240.69
2022-10-07T01:52:12.161Z,98239.03
2022-10-07T01:54:29.169Z,98231.28
2022-10-07T01:56:44.968Z,98228.59
2022-10-07T01:59:09.236Z,98232.94
2022-10-07T02:01:20.549Z,98219.88
2022-10-07T02:03:39.605Z,98221.66
2022-10-07T02:05:52.735Z,98223.34
2022-10-07T02:08:12.729Z,98223.41
2022-10-07T02:10:25.210Z,98219.91
2022-10-07T02:12:34.889Z,98216.41
2022-10-07T02:14:46.095Z,98222.53
2022-10-07T02:16:51.421Z,98219.91
2022-10-07T02:18:54.957Z,98212.09
2022-10-07T02:20:57.718Z,98211.31
2022-10-07T02:23:03.213Z,98207.84
2022-10-07T02:25:07.579Z,98202.59
2022-10-07T02:27:13.809Z,98207.03
2022-10-07T02:29:20.208Z,98208.59
2022-10-07T02:31:29.687Z,98212.09
2022-10-07T02:33:34.923Z,98197.34
2022-10-07T02:35:44.795Z,98207.84
2022-10-07T02:37:51.385Z,98200.06
2022-10-07T02:39:55.779Z,98194.00
2022-10-07T02:42:05.715Z,98191.44
2022-10-07T02:44:18.128Z,98196.69
2022-10-07T02:46:27.106Z,98187.00
2022-10-07T02:48:34.424Z,98189.69
2022-10-07T02:50:42.437Z,98188.88
2022-10-07T02:52:47.116Z,98186.19
2022-10-07T02:54:54.724Z,98182.75
2022-10-07T02:56:59.599Z,98182.69
2022-10-07T02:59:04.579Z,98184.66
2022-10-07T03:01:10.321Z,98190.78
2022-10-07T03:03:14.475Z,98185.59
2022-10-07T03:05:19.253Z,98182.19
2022-10-07T03:07:23.292Z,98191.66
2022-10-07T03:09:26.842Z,98188.34
2022-10-07T03:11:29.574Z,98182.31
2022-10-07T03:13:32.204Z,98186.81
2022-10-07T03:15:42.082Z,98181.69
2022-10-07T03:17:45.865Z,98184.44
2022-10-07T03:19:50.239Z,98183.63
2022-10-07T03:21:53.975Z,98186.25
2022-10-07T03:23:57.163Z,98187.28
2022-10-07T03:26:00.685Z,98184.59
2022-10-07T03:28:03.350Z,98178.56
2022-10-07T03:30:07.754Z,98179.59
2022-10-07T03:32:11.080Z,98170.91
2022-10-07T03:34:13.667Z,98173.72
2022-10-07T03:36:17.605Z,98166.00
2022-10-07T03:38:20.664Z,98168.75
2022-10-07T03:40:23.230Z,98162.72
2022-10-07T03:42:25.807Z,98167.25
2022-10-07T03:44:28.385Z,98168.56
2022-10-07T03:46:31.092Z,98164.50
2022-10-07T03:48:33.786Z,98162.03
2022-10-07T03:50:36.577Z,98163.97
2022-10-07T03:52:40.537Z,98162.34
2022-10-07T03:54:43.524Z,98158.97
2022-10-07T03:56:46.149Z,98163.44
2022-10-07T03:58:48.675Z,98157.59
2022-10-07T04:00:51.282Z,98156.72
2022-10-07T04:02:53.970Z,98158.53
2022-10-07T04:04:57.110Z,98160.38
2022-10-07T04:06:59.720Z,98161.28
2022-10-07T04:09:03.882Z,98147.38
2022-10-07T04:11:06.594Z,98156.88
2022-10-07T04:13:09.162Z,98148.41
2022-10-07T04:15:13.695Z,98144.34
2022-10-07T04:17:18.817Z,98142.66
2022-10-07T04:19:21.371Z,98144.56
2022-10-07T04:21:23.961Z,98148.06
2022-10-07T04:23:26.572Z,98131.72
2022-10-07T04:25:37.579Z,98137.03
2022-10-07T04:27:51.518Z,98135.47
2022-10-07T04:29:54.635Z,98131.16
2022-10-07T04:31:58.981Z,98133.78
2022-10-07T04:34:01.777Z,98133.84
2022-10-07T04:36:05.568Z,98120.88
2022-10-07T04:38:10.503Z,98122.56
2022-10-07T04:40:13.065Z,98127.97
2022-10-07T04:42:30.913Z,98115.88
2022-10-07T04:44:33.471Z,98118.47
2022-10-07T04:46:36.103Z,98110.75
2022-10-07T04:48:38.725Z,98115.13
2022-10-07T04:50:41.311Z,98117.91
2022-10-07T04:52:44.338Z,98110.06
2022-10-07T04:54:46.976Z,98113.59
2022-10-07T04:56:50.543Z,98109.25
2022-10-07T04:58:55.228Z,98109.38
2022-10-07T05:00:59.853Z,98111.13
2022-10-07T05:03:02.827Z,98110.31
2022-10-07T05:05:06.011Z,98113.03
2022-10-07T05:07:08.593Z,98109.59
2022-10-07T05:09:11.377Z,98106.16
2022-10-07T05:11:13.970Z,98106.97
2022-10-07T05:13:17.830Z,98103.59
2022-10-07T05:15:24.298Z,98106.16
2022-10-07T05:17:26.955Z,98111.41
2022-10-07T05:19:29.531Z,98100.06
2022-10-07T05:21:33.494Z,98103.59
2022-10-07T05:23:37.134Z,98097.50
2022-10-07T05:25:39.743Z,98095.69
2022-10-07T05:27:42.526Z,98094.03
2022-10-07T05:29:45.367Z,98097.50
2022-10-07T05:31:49.962Z,98094.94
2022-10-07T05:33:52.761Z,98100.19
2022-10-07T05:35:55.319Z,98099.38
2022-10-07T05:37:57.943Z,98092.41
2022-10-07T05:40:00.544Z,98092.22
2022-10-07T05:42:03.227Z,98087.69
2022-10-07T05:44:05.872Z,98098.09
2022-10-07T05:46:11.570Z,98092.16
2022-10-07T05:48:15.560Z,98099.19
2022-10-07T05:50:18.187Z,98099.19
2022-10-07T05:52:21.147Z,98094.84
2022-10-07T05:54:24.472Z,98095.75
2022-10-07T05:56:27.119Z,98092.41
2022-10-07T05:58:29.729Z,98100.22
2022-10-07T06:00:32.311Z,98087.97
2022-10-07T06:02:36.233Z,98086.94
2022-10-07T06:04:43.062Z,98086.69
2022-10-07T06:06:45.619Z,98089.38
2022-10-07T06:08:48.377Z,98094.72
2022-10-07T06:11:09.046Z,98092.16
2022-10-07T06:13:10.668Z,98093.88
2022-10-07T06:15:13.131Z,98093.97
2022-10-07T06:17:15.746Z,98088.66
2022-10-07T06:19:22.572Z,98098.16
2022-10-07T06:21:28.059Z,98093.88
2022-10-07T06:23:31.918Z,98106.91
2022-10-07T06:25:35.348Z,98106.06
2022-10-07T06:27:37.945Z,98099.94
2022-10-07T06:29:40.860Z,98098.25
2022-10-07T06:31:44.138Z,98112.03
2022-10-07T06:33:46.717Z,98098.94
2022-10-07T06:35:49.274Z,98099.94
2022-10-07T06:37:53.187Z,98101.75
2022-10-07T06:39:59.476Z,98100.75
2022-10-07T06:42:02.339Z,98103.28
2022-10-07T06:44:04.946Z,98109.25
2022-10-07T06:46:08.975Z,98103.97
2022-10-07T06:48:11.587Z,98109.91
2022-10-07T06:50:14.688Z,98109.81
2022-10-07T06:52:17.245Z,98114.06
2022-10-07T06:54:21.191Z,98107.66
2022-10-07T06:56:23.842Z,98107.78
2022-10-07T06:58:26.928Z,98113.81
2022-10-07T07:00:29.493Z,98108.47
2022-10-07T07:02:32.136Z,98108.34
2022-10-07T07:04:34.836Z,98112.59
2022-10-07T07:06:37.412Z,98101.16
2022-10-07T07:08:41.259Z,98103.50
2022-10-07T07:10:46.560Z,98102.59
2022-10-07T07:12:49.578Z,98095.59
2022-10-07T07:14:52.748Z,98098.13
2022-10-07T07:16:55.509Z,98092.81
2022-10-07T07:18:59.927Z,98095.25
2022-10-07T07:21:03.565Z,98098.63
2022-10-07T07:23:08.760Z,98093.91
2022-10-07T07:25:11.966Z,98093.88
2022-10-07T07:27:15.894Z,98092.91
2022-10-07T07:29:18.563Z,98088.34
2022-10-07T07:31:21.952Z,98093.53
2022-10-07T07:33:25.399Z,98091.72
2022-10-07T07:35:31.029Z,98099.44
2022-10-07T07:37:34.212Z,98091.44
2022-10-07T07:39:36.934Z,98088.63
2022-10-07T07:41:41.952Z,98090.16
2022-10-07T07:43:49.374Z,98088.28
2022-10-07T07:45:51.980Z,98089.81
2022-10-07T07:47:54.660Z,98091.38
2022-10-07T07:49:57.235Z,98091.56
2022-10-07T07:51:59.901Z,98092.22
2022-10-07T07:54:02.491Z,98089.53
2022-10-07T07:56:05.421Z,98090.75
2022-10-07T07:58:11.755Z,98085.25
2022-10-07T08:00:17.079Z,98080.81
2022-10-07T08:02:20.441Z,98084.53
2022-10-07T08:04:23.727Z,98088.84
2022-10-07T08:06:27.924Z,98082.13
2022-10-07T08:08:31.481Z,98078.22
2022-10-07T08:10:34.063Z,98081.00
2022-10-07T08:12:36.626Z,98081.94
2022-10-07T08:14:39.940Z,98081.94
2022-10-07T08:16:44.950Z,98085.75
2022-10-07T08:18:49.426Z,98083.25
2022-10-07T08:20:58.117Z,98086.09
2022-10-07T08:23:01.069Z,98082.53
2022-10-07T08:25:03.682Z,98076.97
2022-10-07T08:27:06.279Z,98075.53
2022-10-07T08:29:08.901Z,98069.88
2022-10-07T08:31:14.434Z,98077.78
2022-10-07T08:33:19.179Z,98075.97
2022-10-07T08:35:21.771Z,98073.34
2022-10-07T08:37:24.387Z,98071.66
2022-10-07T08:39:29.444Z,98070.50
2022-10-07T08:41:47.771Z,98067.09
2022-10-07T08:43:52.399Z,98067.03
2022-10-07T08:45:55.986Z,98070.50
2022-10-07T08:48:00.829Z,98071.50
2022-10-07T08:50:09.730Z,98062.25
2022-10-07T08:52:26.545Z,98059.41
2022-10-07T08:54:31.361Z,98057.66
2022-10-07T08:56:34.776Z,98062.09
2022-10-07T08:58:50.236Z,98057.13
2022-10-07T09:01:00.302Z,98060.84
2022-10-07T09:03:11.774Z,98055.13
2022-10-07T09:05:22.140Z,98057.94
2022-10-07T09:07:33.830Z,98054.19
2022-10-07T09:09:40.306Z,98053.88
2022-10-07T09:11:48.928Z,98048.69
2022-10-07T09:13:55.481Z,98048.47
2022-10-07T09:16:00.532Z,98043.06
2022-10-07T09:18:08.209Z,98046.31
2022-10-07T09:20:16.438Z,98040.03
2022-10-07T09:22:23.601Z,98032.94
2022-10-07T09:24:28.959Z,98031.81
2022-10-07T09:26:31.508Z,98026.34
2022-10-07T09:28:34.510Z,98029.81
2022-10-07T09:30:37.217Z,98029.25
2022-10-07T09:32:43.987Z,98028.69
2022-10-07T09:34:47.678Z,98026.22
2022-10-07T09:37:13.261Z,98028.06
2022-10-07T09:39:24.076Z,98020.94
2022-10-07T09:41:32.063Z,98023.44
2022-10-07T09:43:36.089Z,98018.72
2022-10-07T09:45:39.961Z,98014.09
2022-10-07T09:47:43.024Z,98013.03
2022-10-07T09:49:51.383Z,98005.16
2022-10-07T09:52:03.115Z,98007.69
2022-10-07T09:54:07.208Z,98005.06
2022-10-07T09:56:33.622Z,98010.31
2022-10-07T09:58:36.200Z,98006.59
2022-10-07T10:00:44.258Z,98009.97
2022-10-07T10:02:50.116Z,98011.88
2022-10-07T10:04:54.667Z,98003.41
2022-10-07T10:07:02.634Z,98005.28
2022-10-07T10:09:05.287Z,98003.56
2022-10-07T10:11:28.187Z,98007.13
2022-10-07T10:13:34.308Z,97992.22
2022-10-07T10:15:42.664Z,98001.56
2022-10-07T10:17:45.300Z,97997.31
2022-10-07T10:19:47.901Z,98005.22
2022-10-07T10:21:53.041Z,98001.72
2022-10-07T10:23:57.989Z,98001.28
2022-10-07T10:26:30.819Z,97998.00
2022-10-07T10:28:46.525Z,97991.13
2022-10-07T10:30:57.777Z,97988.56
2022-10-07T10:33:14.356Z,97982.31
2022-10-07T10:35:23.217Z,97983.13
2022-10-07T10:37:32.284Z,97985.16
2022-10-07T10:39:47.557Z,97972.94
2022-10-07T10:41:54.288Z,97975.34
2022-10-07T10:44:13.320Z,97975.25
2022-10-07T10:46:33.247Z,97974.03
2022-10-07T10:48:44.022Z,97966.22
2022-10-07T10:50:54.619Z,97960.88
2022-10-07T10:53:07.503Z,97962.78
2022-10-07T10:55:27.897Z,97962.66
2022-10-07T10:57:38.688Z,97960.72
2022-10-07T10:59:56.931Z,97958.53
2022-10-07T11:02:13.281Z,97956.06
2022-10-07T11:04:25.671Z,97951.97
2022-10-07T11:06:30.857Z,97951.19
2022-10-07T11:08:38.396Z,97952.50
2022-10-07T11:10:46.309Z,97950.47
2022-10-07T11:12:55.566Z,97947.00
2022-10-07T11:15:03.809Z,97941.19
2022-10-07T11:17:07.698Z,97945.75
2022-10-07T11:19:17.420Z,97941.69
2022-10-07T11:21:26.071Z,97935.38
2022-10-07T11:23:45.155Z,97934.69
2022-10-07T11:25:53.725Z,97933.00
2022-10-07T11:28:06.113Z,97925.94
2022-10-07T11:30:18.489Z,97935.13
2022-10-07T11:32:25.503Z,97934.66
2022-10-07T11:34:37.993Z,97930.50
2022-10-07T11:36:48.493Z,97926.22
2022-10-07T11:38:53.214Z,97921.75
2022-10-07T11:41:02.417Z,97917.94
2022-10-07T11:43:14.430Z,97906.56
2022-10-07T11:45:24.089Z,97908.09
2022-10-07T11:47:35.086Z,97903.44
2022-10-07T11:49:43.854Z,97903.00
2022-10-07T11:51:55.718Z,97900.47
2022-10-07T11:54:03.973Z,97892.34
2022-10-07T11:56:20.368Z,97894.25
2022-10-07T11:58:28.076Z,97889.72
2022-10-07T12:00:34.832Z,97881.03
2022-10-07T12:02:40.724Z,97883.69
2022-10-07T12:04:43.486Z,97879.81
2022-10-07T12:07:19.193Z,97870.44
2022-10-07T12:10:18.218Z,97864.91
2022-10-07T12:12:24.134Z,97857.94
2022-10-07T12:14:42.972Z,97856.22
2022-10-07T12:16:56.034Z,97859.53
2022-10-07T12:19:23.228Z,97847.91
2022-10-07T12:21:26.521Z,97848.81
2022-10-07T12:24:10.974Z,97852.31
2022-10-07T12:26:50.688Z,97846.81
2022-10-07T12:28:55.726Z,97837.94
2022-10-07T12:31:00.564Z,97843.03
2022-10-07T12:33:15.719Z,97844.56
2022-10-07T12:35:50.017Z,97836.19
2022-10-07T12:38:05.563Z,97835.38
2022-10-07T12:40:17.796Z,97829.06
2022-10-07T12:42:21.042Z,97830.69
2022-10-07T12:44:27.302Z,97825.81
2022-10-07T12:46:34.490Z,97830.41
2022-10-07T12:48:43.521Z,97823.06
2022-10-07T12:50:48.518Z,97822.06
2022-10-07T12:52:54.998Z,97823.75
2022-10-07T12:55:01.660Z,97819.22
2022-10-07T12:57:12.073Z,97810.47
2022-10-07T12:59:47.452Z,97807.91
2022-10-07T13:02:18.360Z,97800.97
2022-10-07T13:04:48.229Z,97802.34
2022-10-07T13:07:20.630Z,97799.28
2022-10-07T13:09:53.724Z,97793.09
2022-10-07T13:12:14.685Z,97788.56
2022-10-07T13:14:24.476Z,97791.03
2022-10-07T13:16:33.978Z,97775.94
2022-10-07T13:18:42.906Z,97786.22
2022-10-07T13:21:03.429Z,97772.63
2022-10-07T13:23:13.007Z,97769.84
2022-10-07T13:25:18.635Z,97762.41
2022-10-07T13:27:26.535Z,97763.66
2022-10-07T13:29:37.722Z,97765.72
2022-10-07T13:31:40.560Z,97755.22
2022-10-07T13:33:44.404Z,97753.97
2022-10-07T13:35:46.990Z,97742.38
2022-10-07T13:37:51.436Z,97747.81
2022-10-07T13:39:54.214Z,97743.25
2022-10-07T13:42:00.097Z,97743.94
2022-10-07T13:44:05.850Z,97735.41
2022-10-07T13:46:10.194Z,97742.63
2022-10-07T13:48:17.180Z,97735.88
2022-10-07T13:50:23.535Z,97731.66
2022-10-07T13:52:32.753Z,97733.47
2022-10-07T13:54:37.439Z,97733.91
2022-10-07T13:56:41.795Z,97728.84
2022-10-07T13:58:44.651Z,97727.88
2022-10-07T14:00:48.871Z,97727.19
2022-10-07T14:02:51.975Z,97727.25
2022-10-07T14:05:01.222Z,97722.81
2022-10-07T14:07:16.692Z,97710.59
2022-10-07T14:09:26.378Z,97707.41
2022-10-07T14:11:30.722Z,97705.28
2022-10-07T14:13:37.801Z,97698.50
2022-10-07T14:15:48.307Z,97703.06
2022-10-07T14:17:54.627Z,97702.66
2022-10-07T14:20:05.448Z,97704.53
2022-10-07T14:22:19.395Z,97700.22
2022-10-07T14:24:22.141Z,97695.25
2022-10-07T14:26:44.996Z,97698.22
2022-10-07T14:28:47.723Z,97694.06
2022-10-07T14:31:29.943Z,97698.34
2022-10-07T14:33:59.847Z,97688.31
2022-10-07T14:36:14.497Z,97686.50
2022-10-07T14:38:21.927Z,97683.63
2022-10-07T14:40:25.629Z,97669.22
2022-10-07T14:42:33.334Z,97673.66
2022-10-07T14:44:36.467Z,97671.09
2022-10-07T14:46:39.144Z,97668.41
2022-10-07T14:48:42.136Z,97660.78
2022-10-07T14:50:45.093Z,97665.94
2022-10-07T14:52:49.795Z,97656.13
2022-10-07T14:54:53.863Z,97657.75
2022-10-07T14:56:56.445Z,97660.31
2022-10-07T14:59:00.828Z,97657.38
2022-10-07T15:01:03.429Z,97652.72
2022-10-07T15:03:06.041Z,97655.94
2022-10-07T15:05:09.514Z,97649.13
2022-10-07T15:07:13.165Z,97649.34
2022-10-07T15:09:18.308Z,97635.16
2022-10-07T15:11:22.484Z,97632.00
2022-10-07T15:13:25.166Z,97634.03
2022-10-07T15:15:29.094Z,97634.22
2022-10-07T15:17:31.686Z,97630.94
2022-10-07T15:19:34.694Z,97635.59
2022-10-07T15:21:38.646Z,97622.78
2022-10-07T15:23:41.604Z,97620.38
2022-10-07T15:25:44.198Z,97626.00
2022-10-07T15:27:46.779Z,97629.91
2022-10-07T15:29:51.638Z,97625.03
2022-10-07T15:31:55.549Z,97626.41
2022-10-07T15:33:58.596Z,97624.44
2022-10-07T15:36:01.687Z,97620.63
2022-10-07T15:38:04.279Z,97620.16
2022-10-07T15:40:08.221Z,97615.44
2022-10-07T15:42:12.915Z,97612.88
2022-10-07T15:44:17.564Z,97606.00
2022-10-07T15:46:20.193Z,97613.06
2022-10-07T15:48:24.185Z,97612.44
2022-10-07T15:50:27.436Z,97610.53
2022-10-07T15:52:32.562Z,97598.59
2022-10-07T15:54:36.188Z,97604.47
2022-10-07T15:56:38.776Z,97597.91
2022-10-07T15:58:42.015Z,97605.09
2022-10-07T16:00:44.637Z,97607.19
2022-10-07T16:02:47.616Z,97605.69
2022-10-07T16:04:52.122Z,97597.44
2022-10-07T16:06:54.754Z,97603.34
2022-10-07T16:08:57.956Z,97599.50
2022-10-07T16:11:02.118Z,97604.03
2022-10-07T16:13:04.725Z,97592.72
2022-10-07T16:15:08.281Z,97591.47
2022-10-07T16:17:10.944Z,97591.47
2022-10-07T16:19:13.824Z,97588.16
2022-10-07T16:21:21.598Z,97591.19
2022-10-07T16:23:24.385Z,97583.69
2022-10-07T16:25:27.066Z,97591.03
2022-10-07T16:27:50.379Z,97584.38
2022-10-07T16:30:19.108Z,97590.03
2022-10-07T16:32:21.715Z,97591.44
2022-10-07T16:34:24.564Z,97596.91
2022-10-07T16:36:28.495Z,97596.91
2022-10-07T16:38:32.560Z,97600.78
2022-10-07T16:40:35.174Z,97600.31
2022-10-07T16:42:37.733Z,97600.69
2022-10-07T16:44:40.272Z,97606.38
2022-10-07T16:46:43.101Z,97603.28
2022-10-07T16:48:47.088Z,97595.81
2022-10-07T16:50:49.755Z,97601.56
2022-10-07T16:52:53.943Z,97598.44
2022-10-07T16:54:56.531Z,97598.84
2022-10-07T16:56:59.115Z,97590.53
2022-10-07T16:59:03.685Z,97593.47
2022-10-07T17:01:09.537Z,97584.13
2022-10-07T17:03:12.117Z,97584.88
2022-10-07T17:05:14.889Z,97583.47
2022-10-07T17:07:19.946Z,97579.25
2022-10-07T17:09:25.265Z,97578.69
2022-10-07T17:11:31.064Z,97581.47
2022-10-07T17:13:36.801Z,97581.63
2022-10-07T17:15:40.893Z,97585.41
2022-10-07T17:17:43.834Z,97584.75
2022-10-07T17:19:46.856Z,97588.28
2022-10-07T17:21:50.850Z,97590.34
2022-10-07T17:23:58.143Z,97592.13
2022-10-07T17:26:06.980Z,97590.44
2022-10-07T17:28:09.627Z,97586.28
2022-10-07T17:30:17.223Z,97582.06
2022-10-07T17:32:19.799Z,97592.69
2022-10-07T17:34:23.073Z,97583.84
2022-10-07T17:36:27.384Z,97593.59
2022-10-07T17:38:34.155Z,97594.66
2022-10-07T17:40:38.558Z,97588.63
2022-10-07T17:42:42.479Z,97590.41
2022-10-07T17:44:45.076Z,97595.84
2022-10-07T17:46:48.865Z,97590.69
2022-10-07T17:48:52.977Z,97596.84
2022-10-07T17:50:55.593Z,97597.91
2022-10-07T17:53:00.553Z,97590.19
2022-10-07T17:55:04.130Z,97587.63
2022-10-07T17:57:06.729Z,97584.25
2022-10-07T17:59:10.802Z,97585.25
2022-10-07T18:01:15.781Z,97587.03
2022-10-07T18:03:18.430Z,97581.88
2022-10-07T18:05:21.015Z,97579.41
2022-10-07T18:07:23.561Z,97588.25
2022-10-07T18:09:27.500Z,97582.22
2022-10-07T18:11:44.623Z,97583.16
2022-10-07T18:14:16.810Z,97577.97
2022-10-07T18:16:21.422Z,97586.91
2022-10-07T18:18:24.075Z,97581.66
2022-10-07T18:20:28.450Z,97579.78
2022-10-07T18:22:31.025Z,97581.75
2022-10-07T18:24:33.713Z,97586.81
2022-10-07T18:26:36.357Z,97585.19
2022-10-07T18:28:39.538Z,97581.28
2022-10-07T18:30:42.124Z,97581.75
2022-10-07T18:32:46.132Z,97578.25
2022-10-07T18:34:51.599Z,97585.28
2022-10-07T18:36:57.495Z,97574.84
2022-10-07T18:39:00.572Z,97574.00
2022-10-07T18:41:04.789Z,97579.25
2022-10-07T18:43:07.929Z,97578.34
2022-10-07T18:45:10.870Z,97577.47
2022-10-07T18:47:13.497Z,97574.84
2022-10-07T18:49:17.481Z,97571.88
2022-10-07T18:51:20.225Z,97571.19
2022-10-07T18:53:22.814Z,97572.38
2022-10-07T18:55:25.970Z,97574.34
2022-10-07T18:57:28.566Z,97562.94
2022-10-07T18:59:31.183Z,97560.41
2022-10-07T19:01:33.997Z,97563.22
2022-10-07T19:03:36.648Z,97563.31
2022-10-07T19:05:41.719Z,97557.09
2022-10-07T19:07:44.696Z,97566.00
2022-10-07T19:09:47.664Z,97568.72
2022-10-07T19:11:53.318Z,97563.56
2022-10-07T19:13:56.601Z,97559.25
2022-10-07T19:16:03.218Z,97563.66
2022-10-07T19:18:06.515Z,97556.78
2022-10-07T19:20:11.143Z,97559.59
2022-10-07T19:22:16.885Z,97556.84
2022-10-07T19:24:20.617Z,97555.16
2022-10-07T19:26:26.465Z,97557.13
2022-10-07T19:28:30.292Z,97560.72
2022-10-07T19:30:32.898Z,97560.03
2022-10-07T19:32:35.509Z,97560.13
2022-10-07T19:34:38.232Z,97563.66
2022-10-07T19:36:46.790Z,97561.63
2022-10-07T19:38:53.330Z,97558.41
2022-10-07T19:40:57.303Z,97565.38
2022-10-07T19:42:59.867Z,97560.19
2022-10-07T19:45:02.992Z,97555.97
2022-10-07T19:47:05.754Z,97555.00
2022-10-07T19:49:09.365Z,97553.16
2022-10-07T19:51:13.508Z,97558.41
2022-10-07T19:53:16.754Z,97560.28
2022-10-07T19:55:20.652Z,97556.03
2022-10-07T19:57:27.450Z,97564.94
2022-10-07T19:59:30.012Z,97565.97
2022-10-07T20:01:36.102Z,97562.50
2022-10-07T20:03:38.819Z,97564.28
2022-10-07T20:05:42.079Z,97557.31
2022-10-07T20:07:45.098Z,97565.31
2022-10-07T20:09:47.860Z,97553.06
2022-10-07T20:11:51.913Z,97554.88
2022-10-07T20:13:54.931Z,97559.38
2022-10-07T20:16:02.965Z,97555.03
2022-10-07T20:18:06.087Z,97555.09
2022-10-07T20:20:09.824Z,97552.56
2022-10-07T20:22:12.646Z,97550.03
2022-10-07T20:24:16.892Z,97558.78
2022-10-07T20:26:21.759Z,97556.97
2022-10-07T20:28:25.833Z,97550.72
2022-10-07T20:30:29.045Z,97552.47
2022-10-07T20:32:33.999Z,97555.09
2022-10-07T20:34:38.285Z,97558.69
2022-10-07T20:36:41.946Z,97559.53
2022-10-07T20:39:03.042Z,97558.25
2022-10-07T20:41:23.105Z,97559.47
2022-10-07T20:43:27.017Z,97566.56
2022-10-07T20:45:30.096Z,97562.22
2022-10-07T20:47:35.201Z,97558.88
2022-10-07T20:49:41.546Z,97559.84
2022-10-07T20:51:44.122Z,97556.44
2022-10-07T20:53:48.396Z,97562.72
2022-10-07T20:55:51.095Z,97559.34
2022-10-07T20:57:53.701Z,97559.41
2022-10-07T20:59:57.606Z,97561.19
2022-10-07T21:02:00.726Z,97558.75
2022-10-07T21:04:04.205Z,97558.81
2022-10-07T21:06:07.491Z,97551.94
2022-10-07T21:08:10.170Z,97554.56
2022-10-07T21:10:14.120Z,97549.41
2022-10-07T21:12:18.421Z,97549.41
2022-10-07T21:14:21.412Z,97551.16
2022-10-07T21:16:26.484Z,97552.13
2022-10-07T21:18:30.803Z,97548.63
2022-10-07T21:20:33.422Z,97547.03
2022-10-07T21:22:37.425Z,97552.34
2022-10-07T21:24:40.011Z,97542.78
2022-10-07T21:26:42.594Z,97545.59
2022-10-07T21:28:48.087Z,97538.69
2022-10-07T21:30:56.315Z,97531.75
2022-10-07T21:33:00.529Z,97542.28
2022-10-07T21:35:03.117Z,97539.72
2022-10-07T21:37:05.995Z,97538.00
2022-10-07T21:39:09.236Z,97533.78
2022-10-07T21:41:13.673Z,97532.06
2022-10-07T21:43:16.217Z,97532.16
2022-10-07T21:45:18.834Z,97538.34
2022-10-07T21:47:21.428Z,97535.81
2022-10-07T21:49:25.485Z,97533.34
2022-10-07T21:51:29.442Z,97534.28
2022-10-07T21:53:33.638Z,97531.72
2022-10-07T21:55:37.368Z,97533.59
2022-10-07T21:57:41.820Z,97529.28
2022-10-07T21:59:44.439Z,97531.03
2022-10-07T22:01:47.080Z,97533.00
2022-10-07T22:03:54.553Z,97524.41
2022-10-07T22:06:03.271Z,97526.28
2022-10-07T22:08:23.606Z,97531.63
2022-10-07T22:10:26.200Z,97535.41
2022-10-07T22:12:29.938Z,97533.72
2022-10-07T22:14:32.520Z,97527.63
2022-10-07T22:16:37.548Z,97527.69
2022-10-07T22:18:40.132Z,97529.56
2022-10-07T22:20:42.731Z,97527.78
2022-10-07T22:22:46.835Z,97523.38
2022-10-07T22:24:49.615Z,97516.41
2022-10-07T22:26:52.273Z,97525.25
2022-10-07T22:28:54.967Z,97518.19
2022-10-07T22:30:58.459Z,97521.69
2022-10-07T22:33:01.080Z,97520.00
2022-10-07T22:35:21.501Z,97513.88
2022-10-07T22:37:24.160Z,97524.47
2022-10-07T22:39:29.547Z,97517.44
2022-10-07T22:41:32.278Z,97511.34
2022-10-07T22:43:36.612Z,97514.13
2022-10-07T22:45:39.235Z,97517.66
2022-10-07T22:47:41.808Z,97513.53
2022-10-07T22:49:44.415Z,97512.75
2022-10-07T22:51:47.002Z,97511.97
2022-10-07T22:53:53.315Z,97506.81
2022-10-07T22:56:02.716Z,97504.34
2022-10-07T22:58:05.317Z,97501.78
2022-10-07T23:00:08.979Z,97502.72
2022-10-07T23:02:11.557Z,97500.09
2022-10-07T23:04:14.194Z,97502.81
2022-10-07T23:06:19.801Z,97503.81
2022-10-07T23:08:22.383Z,97510.06
2022-10-07T23:10:24.975Z,97513.69
2022-10-07T23:12:28.871Z,97517.25
2022-10-07T23:14:31.861Z,97504.31
2022-10-07T23:16:34.602Z,97505.28
2022-10-07T23:18:37.229Z,97507.06
2022-10-07T23:20:39.791Z,97507.19
2022-10-07T23:22:45.147Z,97503.78
2022-10-07T23:24:47.913Z,97506.50
2022-10-07T23:26:50.485Z,97504.91
2022-10-07T23:28:56.173Z,97511.91
2022-10-07T23:30:58.893Z,97511.22
2022-10-07T23:33:01.569Z,97509.44
2022-10-07T23:35:04.377Z,97510.38
2022-10-07T23:37:07.055Z,97511.31
2022-10-07T23:39:10.122Z,97514.00
2022-10-07T23:41:13.800Z,97509.59
2022-10-07T23:43:16.356Z,97516.38
2022-10-07T23:45:20.238Z,97509.53
2022-10-07T23:47:22.833Z,97513.06
2022-10-07T23:49:25.473Z,97510.44
2022-10-07T23:51:29.369Z,97501.72
2022-10-07T23:53:32.591Z,97504.28
2022-10-07T23:55:35.401Z,97502.50
2022-10-07T23:57:37.990Z,97511.13
2022-10-07T23:59:40.629Z,97504.13
